createdAt,value
2022-08-07T00:00:28.011Z,10.91
2022-08-07T00:02:57.005Z,10.84
2022-08-07T00:05:25.748Z,10.73
2022-08-07T00:08:00.060Z,10.61
2022-08-07T00:10:30.527Z,10.45
2022-08-07T00:13:02.079Z,10.26
2022-08-07T00:15:36.179Z,10.25
2022-08-07T00:18:19.282Z,10.20
2022-08-07T00:20:49.454Z,10.22
2022-08-07T00:23:21.296Z,10.43
2022-08-07T00:25:59.105Z,10.53
2022-08-07T00:28:33.723Z,10.66
2022-08-07T00:31:06.238Z,10.75
2022-08-07T00:33:41.999Z,10.69
2022-08-07T00:36:10.189Z,10.60
2022-08-07T00:38:40.251Z,10.54
2022-08-07T00:41:14.427Z,10.39
2022-08-07T00:44:01.275Z,10.21
2022-08-07T00:46:33.175Z,10.10
2022-08-07T00:49:02.943Z,9.97
2022-08-07T00:51:58.347Z,10.09
2022-08-07T00:54:22.431Z,10.14
2022-08-07T00:56:51.856Z,10.09
2022-08-07T00:59:35.253Z,10.02
2022-08-07T01:02:08.779Z,10.00
2022-08-07T01:04:43.118Z,9.95
2022-08-07T01:07:12.746Z,9.88
2022-08-07T01:10:04.043Z,10.03
2022-08-07T01:12:31.309Z,10.02
2022-08-07T01:15:01.597Z,9.92
2022-08-07T01:17:33.124Z,9.87
2022-08-07T01:20:06.561Z,9.95
2022-08-07T01:22:46.881Z,9.97
2022-08-07T01:25:40.306Z,9.94
2022-08-07T01:28:15.662Z,9.93
2022-08-07T01:30:45.650Z,9.98
2022-08-07T01:33:15.113Z,9.98
2022-08-07T01:35:53.310Z,10.00
2022-08-07T01:38:25.873Z,9.85
2022-08-07T01:40:56.184Z,9.84
2022-08-07T01:43:25.968Z,9.82
2022-08-07T01:45:55.497Z,9.88
2022-08-07T01:48:30.364Z,9.82
2022-08-07T01:51:24.078Z,9.72
2022-08-07T01:54:09.666Z,9.69
2022-08-07T01:56:49.134Z,9.65
2022-08-07T01:59:30.876Z,9.62
2022-08-07T02:02:06.019Z,9.45
2022-08-07T02:04:56.158Z,9.29
2022-08-07T02:07:44.991Z,9.29
2022-08-07T02:10:18.432Z,9.31
2022-08-07T02:12:50.298Z,9.36
2022-08-07T02:15:23.148Z,9.43
2022-08-07T02:17:54.889Z,9.51
2022-08-07T02:20:25.588Z,9.52
2022-08-07T02:22:57.526Z,9.45
2022-08-07T02:26:10.519Z,9.35
2022-08-07T02:28:24.399Z,9.43
2022-08-07T02:30:54.794Z,9.49
2022-08-07T02:33:42.166Z,9.54
2022-08-07T02:36:28.562Z,9.54
2022-08-07T02:39:02.613Z,9.49
2022-08-07T02:41:54.406Z,9.44
2022-08-07T02:44:27.670Z,9.33
2022-08-07T02:47:05.006Z,9.33
2022-08-07T02:49:57.826Z,9.38
2022-08-07T02:52:31.003Z,9.48
2022-08-07T02:55:04.054Z,9.50
2022-08-07T02:57:37.894Z,9.51
2022-08-07T03:00:11.143Z,9.45
2022-08-07T03:02:54.319Z,9.14
2022-08-07T03:05:25.350Z,9.21
2022-08-07T03:08:07.960Z,9.14
2022-08-07T03:10:40.655Z,9.08
2022-08-07T03:13:19.517Z,9.01
2022-08-07T03:15:56.385Z,9.02
2022-08-07T03:18:34.818Z,9.11
2022-08-07T03:21:08.532Z,9.12
2022-08-07T03:24:17.805Z,8.99
2022-08-07T03:26:31.841Z,9.03
2022-08-07T03:29:04.234Z,8.97
2022-08-07T03:31:42.804Z,8.89
2022-08-07T03:34:18.848Z,8.82
2022-08-07T03:36:53.615Z,8.86
2022-08-07T03:39:45.778Z,8.79
2022-08-07T03:42:13.189Z,8.75
2022-08-07T03:44:43.106Z,8.61
2022-08-07T03:47:22.676Z,8.60
2022-08-07T03:49:52.296Z,8.52
2022-08-07T03:52:26.527Z,8.51
2022-08-07T03:54:58.953Z,8.50
2022-08-07T03:58:33.134Z,8.50
2022-08-07T04:00:29.158Z,8.59
2022-08-07T04:02:59.912Z,8.62
2022-08-07T04:05:40.591Z,8.73
2022-08-07T04:08:12.315Z,8.71
2022-08-07T04:10:42.438Z,8.75
2022-08-07T04:13:15.081Z,8.85
2022-08-07T04:15:45.876Z,8.69
2022-08-07T04:18:57.301Z,8.63
2022-08-07T04:21:07.199Z,8.66
2022-08-07T04:23:43.383Z,8.68
2022-08-07T04:26:28.635Z,8.66
2022-08-07T04:28:57.083Z,8.63
2022-08-07T04:31:39.214Z,8.71
2022-08-07T04:34:17.344Z,8.73
2022-08-07T04:36:52.602Z,8.79
2022-08-07T04:39:25.413Z,8.97
2022-08-07T04:41:54.166Z,9.08
2022-08-07T04:44:22.472Z,9.15
2022-08-07T04:47:07.928Z,9.21
2022-08-07T04:49:47.621Z,9.25
2022-08-07T04:52:35.130Z,9.36
2022-08-07T04:55:14.870Z,9.42
2022-08-07T04:58:38.840Z,9.58
2022-08-07T05:01:13.386Z,9.74
2022-08-07T05:04:07.132Z,9.87
2022-08-07T05:06:42.919Z,9.95
2022-08-07T05:09:43.213Z,10.11
2022-08-07T05:12:15.542Z,10.21
2022-08-07T05:15:04.710Z,10.30
2022-08-07T05:17:50.794Z,10.45
2022-08-07T05:20:27.343Z,10.54
2022-08-07T05:23:00.774Z,10.65
2022-08-07T05:26:10.457Z,10.73
2022-08-07T05:28:26.611Z,10.83
2022-08-07T05:30:56.944Z,10.98
2022-08-07T05:33:26.063Z,11.16
2022-08-07T05:35:57.298Z,11.24
2022-08-07T05:38:58.036Z,11.35
2022-08-07T05:41:16.618Z,11.49
2022-08-07T05:44:07.758Z,11.57
2022-08-07T05:46:38.281Z,11.71
2022-08-07T05:49:11.686Z,11.82
2022-08-07T05:51:43.274Z,11.90
2022-08-07T05:54:31.163Z,11.99
2022-08-07T05:57:04.966Z,12.08
2022-08-07T05:59:46.619Z,12.15
2022-08-07T06:02:29.045Z,12.22
2022-08-07T06:05:03.671Z,12.25
2022-08-07T06:08:13.236Z,12.38
2022-08-07T06:10:23.841Z,12.48
2022-08-07T06:12:52.152Z,12.57
2022-08-07T06:15:20.947Z,12.75
2022-08-07T06:17:53.870Z,12.82
2022-08-07T06:20:32.192Z,12.92
2022-08-07T06:23:46.507Z,13.02
2022-08-07T06:26:03.290Z,13.10
2022-08-07T06:28:31.938Z,13.16
2022-08-07T06:31:00.098Z,13.27
2022-08-07T06:33:29.788Z,13.36
2022-08-07T06:36:12.777Z,13.44
2022-08-07T06:38:59.433Z,13.48
2022-08-07T06:42:01.080Z,13.59
2022-08-07T06:44:33.965Z,13.69
2022-08-07T06:47:10.331Z,13.75
2022-08-07T06:49:51.826Z,13.84
2022-08-07T06:52:35.993Z,13.91
2022-08-07T06:55:31.678Z,13.99
2022-08-07T06:58:01.741Z,14.05
2022-08-07T07:00:35.325Z,14.11
2022-08-07T07:03:10.813Z,14.16
2022-08-07T07:06:03.343Z,14.21
2022-08-07T07:08:33.529Z,14.16
2022-08-07T07:11:14.069Z,14.37
2022-08-07T07:13:58.023Z,14.42
2022-08-07T07:16:45.033Z,14.49
2022-08-07T07:19:56.309Z,14.71
2022-08-07T07:22:35.913Z,14.68
2022-08-07T07:26:31.639Z,14.73
2022-08-07T07:28:02.587Z,14.85
2022-08-07T07:30:38.533Z,14.85
2022-08-07T07:33:12.087Z,14.80
2022-08-07T07:35:51.860Z,14.94
2022-08-07T07:38:35.821Z,14.98
2022-08-07T07:41:08.893Z,14.96
2022-08-07T07:44:13.714Z,15.15
2022-08-07T07:46:39.872Z,15.27
2022-08-07T07:50:34.519Z,15.28
2022-08-07T07:52:13.830Z,15.31
2022-08-07T07:54:51.089Z,15.43
2022-08-07T07:57:52.330Z,15.59
2022-08-07T08:00:21.156Z,15.66
2022-08-07T08:03:07.850Z,15.65
2022-08-07T08:05:54.428Z,15.74
2022-08-07T08:08:35.496Z,15.71
2022-08-07T08:11:16.457Z,15.73
2022-08-07T08:13:54.878Z,15.75
2022-08-07T08:16:29.586Z,15.69
2022-08-07T08:19:17.476Z,15.80
2022-08-07T08:22:07.981Z,15.84
2022-08-07T08:25:04.866Z,15.99
2022-08-07T08:27:56.558Z,16.02
2022-08-07T08:30:34.483Z,16.23
2022-08-07T08:33:10.604Z,16.12
2022-08-07T08:35:50.714Z,16.09
2022-08-07T08:38:25.913Z,16.25
2022-08-07T08:41:05.056Z,16.27
2022-08-07T08:43:42.943Z,16.34
2022-08-07T08:46:27.736Z,16.37
2022-08-07T08:49:05.130Z,16.34
2022-08-07T08:52:12.518Z,16.55
2022-08-07T08:54:33.240Z,16.57
2022-08-07T08:57:08.281Z,16.50
2022-08-07T08:59:50.230Z,16.62
2022-08-07T09:02:34.589Z,16.57
2022-08-07T09:05:17.367Z,16.70
2022-08-07T09:07:58.327Z,16.75
2022-08-07T09:10:33.801Z,16.74
2022-08-07T09:13:10.847Z,16.67
2022-08-07T09:16:23.408Z,16.91
2022-08-07T09:19:52.339Z,16.94
2022-08-07T09:24:29.296Z,16.92
2022-08-07T09:25:24.527Z,16.93
2022-08-07T09:28:02.029Z,16.99
2022-08-07T09:30:50.625Z,17.00
2022-08-07T09:33:52.801Z,16.99
2022-08-07T09:36:35.393Z,17.17
2022-08-07T09:39:27.459Z,17.23
2022-08-07T09:42:17.029Z,17.32
2022-08-07T09:47:25.811Z,17.27
2022-08-07T09:48:11.858Z,17.33
2022-08-07T09:50:55.281Z,17.53
2022-08-07T09:53:27.256Z,17.53
2022-08-07T09:56:41.963Z,17.70
2022-08-07T09:59:37.061Z,17.76
2022-08-07T10:02:31.528Z,17.91
2022-08-07T10:05:59.974Z,17.94
2022-08-07T10:08:49.528Z,17.81
2022-08-07T10:12:01.168Z,17.86
2022-08-07T10:14:47.452Z,17.97
2022-08-07T10:18:01.804Z,18.16
2022-08-07T10:20:44.450Z,18.13
2022-08-07T10:24:05.620Z,18.33
2022-08-07T10:26:53.521Z,18.60
2022-08-07T10:30:00.609Z,18.55
2022-08-07T10:32:53.713Z,18.49
2022-08-07T10:35:55.699Z,18.30
2022-08-07T10:38:36.181Z,18.47
2022-08-07T10:41:51.366Z,18.64
2022-08-07T10:44:19.539Z,18.82
2022-08-07T10:47:11.881Z,19.05
2022-08-07T10:49:51.237Z,19.21
2022-08-07T10:52:33.558Z,19.27
2022-08-07T10:55:26.581Z,19.30
2022-08-07T10:58:14.651Z,19.35
2022-08-07T11:00:56.238Z,19.13
2022-08-07T11:03:51.227Z,19.01
2022-08-07T11:06:29.962Z,19.18
2022-08-07T11:09:04.130Z,19.17
2022-08-07T11:11:51.878Z,19.21
2022-08-07T11:14:44.468Z,18.82
2022-08-07T11:17:23.134Z,18.97
2022-08-07T11:19:58.796Z,18.77
2022-08-07T11:22:37.172Z,19.06
2022-08-07T11:25:19.946Z,19.09
2022-08-07T11:28:01.197Z,19.00
2022-08-07T11:30:42.290Z,18.98
2022-08-07T11:33:59.828Z,19.01
2022-08-07T11:36:30.754Z,18.95
2022-08-07T11:39:09.348Z,19.02
2022-08-07T11:42:01.490Z,19.02
2022-08-07T11:44:52.449Z,19.08
2022-08-07T11:47:55.846Z,19.40
2022-08-07T11:50:36.829Z,19.50
2022-08-07T11:53:22.043Z,19.78
2022-08-07T11:56:25.688Z,19.83
2022-08-07T12:00:09.967Z,20.08
2022-08-07T12:02:03.759Z,20.13
2022-08-07T12:05:03.730Z,20.25
2022-08-07T12:07:45.353Z,20.24
2022-08-07T12:10:28.865Z,19.97
2022-08-07T12:13:04.064Z,20.08
2022-08-07T12:16:05.942Z,20.21
2022-08-07T12:18:38.102Z,20.22
2022-08-07T12:22:36.679Z,20.26
2022-08-07T12:24:37.920Z,20.32
2022-08-07T12:27:16.030Z,20.21
2022-08-07T12:29:52.788Z,20.34
2022-08-07T12:32:28.828Z,20.53
2022-08-07T12:35:01.121Z,20.89
2022-08-07T12:38:09.378Z,21.31
2022-08-07T12:40:47.492Z,21.49
2022-08-07T12:44:01.995Z,21.74
2022-08-07T12:46:32.710Z,21.77
2022-08-07T12:49:25.532Z,21.66
2022-08-07T12:52:12.035Z,21.31
2022-08-07T12:54:54.942Z,20.97
2022-08-07T12:57:39.314Z,21.23
2022-08-07T13:00:31.025Z,21.80
2022-08-07T13:03:26.829Z,23.23
2022-08-07T13:06:21.437Z,24.95
2022-08-07T13:10:10.018Z,26.79
2022-08-07T13:12:03.473Z,27.68
2022-08-07T13:14:52.612Z,28.70
2022-08-07T13:17:39.985Z,28.64
2022-08-07T13:20:16.713Z,29.70
2022-08-07T13:22:52.474Z,28.07
2022-08-07T13:25:30.044Z,25.83
2022-08-07T13:28:12.829Z,26.50
2022-08-07T13:31:01.747Z,28.52
2022-08-07T13:34:30.827Z,27.54
2022-08-07T13:36:39.687Z,28.89
2022-08-07T13:39:28.420Z,28.18
2022-08-07T13:42:03.928Z,27.84
2022-08-07T13:44:37.052Z,26.67
2022-08-07T13:47:09.793Z,27.55
2022-08-07T13:50:32.909Z,27.62
2022-08-07T13:52:40.976Z,26.70
2022-08-07T13:55:19.564Z,26.49
2022-08-07T13:58:28.154Z,26.86
2022-08-07T14:01:08.836Z,27.66
2022-08-07T14:04:05.482Z,28.87
2022-08-07T14:06:33.148Z,30.29
2022-08-07T14:09:04.497Z,29.89
2022-08-07T14:11:53.227Z,28.04
2022-08-07T14:14:39.800Z,28.98
2022-08-07T14:17:32.104Z,28.54
2022-08-07T14:20:42.248Z,29.83
2022-08-07T14:23:01.906Z,29.90
2022-08-07T14:25:39.513Z,29.09
2022-08-07T14:28:18.267Z,27.43
2022-08-07T14:30:51.896Z,25.64
2022-08-07T14:33:22.316Z,27.01
2022-08-07T14:35:56.701Z,28.28
2022-08-07T14:38:31.414Z,27.31
2022-08-07T14:41:04.836Z,25.91
2022-08-07T14:43:55.499Z,24.86
2022-08-07T14:46:31.516Z,23.93
2022-08-07T14:49:55.844Z,23.18
2022-08-07T14:52:03.661Z,22.85
2022-08-07T14:54:43.100Z,22.52
2022-08-07T15:02:57.160Z,23.12
2022-08-07T15:05:26.752Z,23.94
2022-08-07T15:07:58.486Z,23.73
2022-08-07T15:10:30.078Z,23.93
2022-08-07T15:13:05.958Z,23.69
2022-08-07T15:15:38.720Z,23.97
2022-08-07T15:18:14.485Z,23.50
2022-08-07T15:26:46.885Z,23.45
2022-08-07T15:32:11.577Z,24.34
2022-08-07T15:34:50.813Z,26.25
2022-08-07T15:38:17.300Z,28.19
2022-08-07T15:40:34.633Z,29.53
2022-08-07T15:46:32.155Z,30.25
2022-08-07T15:49:12.618Z,28.98
2022-08-07T15:54:34.105Z,29.21
2022-08-07T15:57:05.704Z,31.16
2022-08-07T15:59:38.887Z,30.85
2022-08-07T16:02:09.367Z,29.62
2022-08-07T16:04:44.482Z,31.03
2022-08-07T16:08:32.500Z,30.43
2022-08-07T16:10:14.814Z,30.41
2022-08-07T16:13:04.670Z,30.00
2022-08-07T16:15:57.538Z,29.47
2022-08-07T16:18:50.948Z,26.94
2022-08-07T16:22:03.498Z,25.64
2022-08-07T16:24:33.463Z,26.72
2022-08-07T16:27:18.372Z,27.28
2022-08-07T16:30:29.802Z,28.38
2022-08-07T16:33:00.609Z,28.90
2022-08-07T16:36:02.914Z,29.33
2022-08-07T16:41:41.544Z,29.73
2022-08-07T16:45:14.182Z,30.42
2022-08-07T16:47:56.812Z,28.83
2022-08-07T16:51:20.990Z,27.85
2022-08-07T16:54:06.880Z,28.19
2022-08-07T16:56:53.443Z,28.38
2022-08-07T16:59:47.018Z,29.08
2022-08-07T17:02:55.719Z,28.80
2022-08-07T17:06:20.008Z,28.53
2022-08-07T17:09:08.815Z,28.04
2022-08-07T17:12:04.728Z,27.46
2022-08-07T17:14:33.386Z,26.60
2022-08-07T17:17:05.771Z,27.51
2022-08-07T17:20:01.806Z,28.13
2022-08-07T17:22:38.128Z,27.81
2022-08-07T17:25:16.675Z,26.31
2022-08-07T17:28:00.451Z,26.12
2022-08-07T17:30:36.371Z,25.01
2022-08-07T17:34:09.180Z,23.69
2022-08-07T17:36:21.398Z,23.39
2022-08-07T17:39:02.623Z,22.59
2022-08-07T17:42:04.761Z,22.19
2022-08-07T17:44:49.916Z,21.92
2022-08-07T17:47:38.165Z,21.46
2022-08-07T17:50:18.997Z,21.54
2022-08-07T17:52:55.263Z,21.43
2022-08-07T17:55:56.561Z,21.58
2022-08-07T17:58:29.975Z,21.48
2022-08-07T18:01:20.839Z,21.42
2022-08-07T18:04:06.910Z,21.41
2022-08-07T18:06:43.033Z,21.27
2022-08-07T18:09:19.441Z,21.20
2022-08-07T18:12:28.237Z,21.08
2022-08-07T18:15:08.610Z,20.92
2022-08-07T18:18:47.599Z,20.81
2022-08-07T18:21:09.540Z,20.69
2022-08-07T18:23:43.733Z,20.67
2022-08-07T18:26:28.848Z,20.61
2022-08-07T18:30:07.510Z,20.59
2022-08-07T18:32:09.522Z,20.50
2022-08-07T18:35:00.636Z,20.40
2022-08-07T18:38:56.628Z,20.35
2022-08-07T18:40:57.849Z,20.26
2022-08-07T18:43:48.907Z,20.17
2022-08-07T18:46:27.792Z,20.12
2022-08-07T18:50:05.451Z,20.00
2022-08-07T18:52:35.401Z,19.89
2022-08-07T18:55:42.392Z,19.80
2022-08-07T18:58:29.901Z,19.54
2022-08-07T19:02:17.151Z,19.54
2022-08-07T19:04:09.882Z,19.43
2022-08-07T19:06:53.164Z,19.42
2022-08-07T19:09:57.678Z,19.30
2022-08-07T19:12:26.344Z,19.23
2022-08-07T19:16:03.406Z,19.09
2022-08-07T19:18:18.959Z,18.99
2022-08-07T19:21:13.938Z,18.81
2022-08-07T19:24:02.328Z,18.65
2022-08-07T19:27:09.329Z,18.48
2022-08-07T19:31:06.293Z,18.28
2022-08-07T19:32:26.478Z,18.08
2022-08-07T19:35:03.824Z,17.84
2022-08-07T19:37:56.517Z,17.75
2022-08-07T19:40:31.267Z,17.63
2022-08-07T19:43:08.504Z,17.44
2022-08-07T19:46:05.879Z,17.31
2022-08-07T19:48:42.999Z,17.15
2022-08-07T19:51:19.245Z,17.03
2022-08-07T19:54:34.049Z,16.92
2022-08-07T19:56:59.724Z,16.87
2022-08-07T19:59:41.103Z,16.84
2022-08-07T20:02:19.846Z,16.77
2022-08-07T20:04:52.079Z,16.67
2022-08-07T20:07:46.217Z,16.59
2022-08-07T20:10:38.074Z,16.53
2022-08-07T20:13:23.212Z,16.35
2022-08-07T20:15:57.769Z,16.39
2022-08-07T20:18:32.189Z,16.34
2022-08-07T20:21:03.178Z,16.31
2022-08-07T20:23:42.169Z,16.34
2022-08-07T20:26:12.960Z,16.18
2022-08-07T20:28:53.817Z,16.34
2022-08-07T20:31:24.901Z,16.25
2022-08-07T20:33:57.558Z,16.19
2022-08-07T20:36:28.380Z,15.96
2022-08-07T20:39:17.742Z,15.91
2022-08-07T20:41:51.629Z,15.70
2022-08-07T20:44:28.456Z,15.59
2022-08-07T20:47:05.748Z,15.48
2022-08-07T20:50:00.427Z,15.44
2022-08-07T20:52:51.931Z,15.27
2022-08-07T20:55:25.556Z,15.32
2022-08-07T20:58:02.878Z,15.22
2022-08-07T21:00:39.244Z,15.14
2022-08-07T21:03:13.046Z,14.99
2022-08-07T21:05:55.746Z,14.86
2022-08-07T21:08:36.941Z,14.64
2022-08-07T21:11:11.958Z,14.61
2022-08-07T21:14:16.804Z,14.63
2022-08-07T21:16:46.812Z,14.76
2022-08-07T21:19:32.455Z,14.80
2022-08-07T21:22:19.340Z,14.84
2022-08-07T21:25:12.740Z,14.77
2022-08-07T21:28:02.238Z,14.73
2022-08-07T21:30:41.816Z,14.53
2022-08-07T21:33:17.680Z,14.49
2022-08-07T21:36:04.384Z,14.47
2022-08-07T21:38:50.105Z,14.44
2022-08-07T21:41:25.655Z,14.41
2022-08-07T21:44:03.727Z,14.37
2022-08-07T21:46:41.909Z,14.15
2022-08-07T21:49:16.417Z,14.35
2022-08-07T21:51:58.599Z,14.36
2022-08-07T21:54:46.185Z,14.23
2022-08-07T21:57:44.609Z,14.07
2022-08-07T22:00:24.793Z,13.95
2022-08-07T22:03:05.604Z,13.86
2022-08-07T22:05:45.914Z,13.75
2022-08-07T22:08:21.052Z,13.52
2022-08-07T22:10:56.035Z,13.51
2022-08-07T22:13:50.288Z,13.43
2022-08-07T22:16:44.783Z,13.31
2022-08-07T22:19:18.178Z,13.25
2022-08-07T22:22:04.482Z,13.31
2022-08-07T22:24:46.976Z,13.41
2022-08-07T22:27:23.538Z,13.47
2022-08-07T22:30:15.656Z,13.54
2022-08-07T22:32:56.516Z,13.61
2022-08-07T22:35:39.383Z,13.66
2022-08-07T22:38:20.559Z,13.60
2022-08-07T22:40:57.841Z,13.50
2022-08-07T22:43:40.325Z,13.32
2022-08-07T22:47:03.881Z,13.17
2022-08-07T22:49:54.530Z,13.11
2022-08-07T22:53:15.223Z,13.08
2022-08-07T22:55:52.581Z,12.84
2022-08-07T22:58:38.180Z,12.68
2022-08-07T23:01:23.498Z,12.68
2022-08-07T23:04:05.015Z,12.69
2022-08-07T23:06:50.605Z,12.83
2022-08-07T23:10:04.207Z,12.94
2022-08-07T23:12:35.658Z,12.96
2022-08-07T23:16:04.344Z,13.01
2022-08-07T23:18:14.630Z,12.96
2022-08-07T23:21:01.951Z,12.98
2022-08-07T23:24:07.025Z,12.84
2022-08-07T23:26:57.158Z,12.68
2022-08-07T23:30:38.837Z,12.58
2022-08-07T23:34:35.691Z,12.50
2022-08-07T23:36:10.665Z,12.25
2022-08-07T23:38:57.471Z,12.23
2022-08-07T23:41:47.492Z,12.30
2022-08-07T23:44:55.857Z,12.34
2022-08-07T23:47:46.659Z,12.16
2022-08-07T23:50:30.385Z,12.33
2022-08-07T23:53:17.343Z,12.41
2022-08-07T23:55:55.640Z,12.42
2022-08-07T23:58:37.290Z,12.47
